Time;durP1;ratioP1;P1;durP2;ratioP2;P2;SDS_P1;SDS_P2;PMS_P1;PMS_P2;Temp;Humidity;BMP_temperature;BMP_pressure;BME280_temperature;BME280_humidity;BME280_pressure;Samples;Min_cycle;Max_cycle;Signal;HPM_P1;HPM_P2
2022/12/12 00:01:21;;;;;;;34.47;27.70;;;0.70;99.90;;;;;;5096260;28;20490;-68
2022/12/12 00:03:47;;;;;;;36.97;28.73;;;0.60;99.90;;;;;;5080333;28;20043;-75
2022/12/12 00:06:13;;;;;;;35.60;27.40;;;0.60;99.90;;;;;;5102401;27;20047;-75
2022/12/12 00:08:39;;;;;;;33.67;27.20;;;0.60;99.90;;;;;;5102690;28;20051;-76
2022/12/12 00:11:05;;;;;;;35.83;27.83;;;0.60;99.90;;;;;;5066845;27;20058;-76
2022/12/12 00:13:31;;;;;;;34.93;27.23;;;0.60;99.90;;;;;;5087532;28;20088;-75
2022/12/12 00:15:57;;;;;;;36.80;28.07;;;0.60;99.90;;;;;;5084596;28;20577;-76
2022/12/12 00:18:22;;;;;;;35.87;27.60;;;0.60;99.90;;;;;;5083941;28;20122;-76
2022/12/12 00:20:52;;;;;;;35.20;26.40;;;0.70;99.90;;;;;;5101478;28;21006;-75
2022/12/12 00:23:18;;;;;;;36.67;27.80;;;0.70;99.90;;;;;;5105785;27;20653;-76
2022/12/12 00:25:44;;;;;;;34.90;27.67;;;0.60;99.90;;;;;;5086482;27;20039;-76
2022/12/12 00:28:10;;;;;;;34.67;26.40;;;0.70;99.90;;;;;;5088790;27;20462;-76
2022/12/12 00:30:36;;;;;;;33.27;26.80;;;0.60;99.90;;;;;;5103006;27;20523;-76
2022/12/12 00:33:01;;;;;;;35.30;27.83;;;0.60;99.90;;;;;;5104631;27;20546;-76
2022/12/12 00:35:27;;;;;;;36.47;27.77;;;0.60;99.90;;;;;;5086394;27;20067;-76
2022/12/12 00:37:53;;;;;;;35.93;27.93;;;0.60;99.90;;;;;;5089826;27;20089;-75
2022/12/12 00:40:22;;;;;;;32.90;26.13;;;0.60;99.90;;;;;;5081942;27;20882;-75
2022/12/12 00:42:47;;;;;;;32.87;26.40;;;0.60;99.90;;;;;;5072035;27;20039;-76
2022/12/12 00:45:14;;;;;;;37.43;27.97;;;0.60;99.90;;;;;;5071579;27;20035;-75
2022/12/12 00:47:39;;;;;;;37.57;28.50;;;0.60;99.90;;;;;;5085960;27;20058;-76
2022/12/12 00:50:06;;;;;;;34.27;27.40;;;0.60;99.90;;;;;;5104798;27;20043;-77
2022/12/12 00:52:32;;;;;;;36.30;26.83;;;0.60;99.90;;;;;;5104461;27;20489;-77
2022/12/12 00:54:57;;;;;;;33.10;26.10;;;0.60;99.90;;;;;;5072889;27;20054;-76
2022/12/12 00:57:23;;;;;;;33.40;26.07;;;0.60;99.90;;;;;;5070003;27;20050;-77
2022/12/12 00:59:49;;;;;;;32.03;24.83;;;0.70;99.90;;;;;;5105819;27;20046;-76
2022/12/12 01:02:15;;;;;;;34.30;26.10;;;0.70;99.90;;;;;;5069283;27;20406;-76
2022/12/12 01:04:40;;;;;;;33.57;27.10;;;0.60;99.90;;;;;;5079061;27;20046;-76
2022/12/12 01:07:06;;;;;;;32.10;25.03;;;0.70;99.90;;;;;;5069171;27;20391;-76
2022/12/12 01:09:33;;;;;;;33.67;26.53;;;0.60;99.90;;;;;;5097328;27;20039;-76
2022/12/12 01:11:59;;;;;;;31.73;24.60;;;0.70;99.90;;;;;;5085622;27;20050;-76
2022/12/12 01:14:24;;;;;;;31.57;25.43;;;0.60;99.90;;;;;;5087861;27;20047;-76
2022/12/12 01:16:50;;;;;;;33.83;25.77;;;0.60;99.90;;;;;;5102487;27;20493;-75
2022/12/12 01:19:16;;;;;;;36.60;26.37;;;0.60;99.90;;;;;;5087356;27;20038;-76
2022/12/12 01:21:42;;;;;;;33.23;25.20;;;0.70;99.90;;;;;;5088725;28;20044;-76
2022/12/12 01:24:07;;;;;;;32.60;25.03;;;0.50;99.90;;;;;;5069424;28;20130;-76
2022/12/12 01:26:36;;;;;;;32.40;25.17;;;0.60;99.90;;;;;;5050140;28;20067;-76
2022/12/12 01:29:02;;;;;;;32.97;25.40;;;0.60;99.90;;;;;;5067695;28;20364;-76
2022/12/12 01:31:29;;;;;;;36.00;27.30;;;0.60;99.90;;;;;;5068349;28;20036;-76
2022/12/12 01:33:55;;;;;;;35.30;25.87;;;0.60;99.90;;;;;;5068926;28;20043;-76
2022/12/12 01:36:22;;;;;;;32.60;25.10;;;0.60;99.90;;;;;;5062602;28;20123;-76
2022/12/12 01:38:50;;;;;;;30.30;24.03;;;0.60;99.90;;;;;;5085630;28;20062;-76
2022/12/12 01:41:17;;;;;;;33.20;25.97;;;0.50;99.90;;;;;;5066293;28;20039;-76
2022/12/12 01:43:43;;;;;;;30.40;23.37;;;0.60;99.90;;;;;;5069010;28;20070;-75
2022/12/12 01:46:32;;;;;;;29.60;24.53;;;0.60;99.90;;;;;;5068623;28;20071;-75
2022/12/12 01:49:24;;;;;;;31.83;25.13;;;0.60;99.90;;;;;;5068076;28;20112;-76
2022/12/12 01:52:04;;;;;;;31.90;25.10;;;0.60;99.90;;;;;;5076324;28;20055;-76
2022/12/12 01:54:34;;;;;;;30.73;25.20;;;0.60;99.90;;;;;;5068390;28;20071;-76
2022/12/12 01:57:03;;;;;;;33.15;26.17;;;0.50;99.90;;;;;;5066887;28;20129;-76
2022/12/12 01:59:32;;;;;;;31.13;25.43;;;0.60;99.90;;;;;;5085729;28;20047;-76
2022/12/12 02:01:58;;;;;;;32.17;25.63;;;0.60;99.90;;;;;;5033753;28;20560;-76
2022/12/12 02:04:26;;;;;;;32.60;25.83;;;0.60;99.90;;;;;;5062939;28;20043;-76
2022/12/12 02:06:54;;;;;;;30.70;23.77;;;0.60;99.90;;;;;;5080862;28;20054;-76
2022/12/12 02:09:21;;;;;;;29.20;23.73;;;0.60;99.90;;;;;;5064302;28;20050;-76
2022/12/12 02:11:57;;;;;;;32.53;25.53;;;0.60;99.90;;;;;;5083199;28;20043;-76
2022/12/12 02:14:36;;;;;;;31.17;24.10;;;0.60;99.90;;;;;;5063226;28;20163;-76
2022/12/12 02:17:17;;;;;;;28.70;22.93;;;0.60;99.90;;;;;;5084793;28;20042;-76
2022/12/12 02:20:15;;;;;;;32.27;25.07;;;0.60;99.90;;;;;;5080769;28;20039;-76
2022/12/12 02:23:13;;;;;;;27.90;23.93;;;0.50;99.90;;;;;;5061807;28;20057;-76
2022/12/12 02:26:35;;;;;;;31.63;25.30;;;0.50;99.90;;;;;;5064659;28;20043;-76
2022/12/12 02:29:39;;;;;;;32.10;24.10;;;0.50;99.90;;;;;;5021611;28;20410;-75
2022/12/12 02:32:19;;;;;;;28.57;23.70;;;0.50;99.90;;;;;;5052202;28;20510;-76
2022/12/12 02:34:57;;;;;;;27.73;23.00;;;0.50;99.90;;;;;;5069880;28;20506;-76
2022/12/12 02:37:35;;;;;;;30.67;23.33;;;0.50;99.90;;;;;;5056400;28;20079;-76
2022/12/12 02:40:06;;;;;;;29.53;23.63;;;0.50;99.90;;;;;;5052571;28;21219;-76
2022/12/12 02:42:50;;;;;;;30.13;24.13;;;0.50;99.90;;;;;;5055237;28;20134;-75
2022/12/12 02:45:34;;;;;;;29.23;23.80;;;0.50;99.90;;;;;;5069698;28;20043;-75
2022/12/12 02:48:32;;;;;;;28.40;23.57;;;0.50;99.90;;;;;;5073442;27;20044;-76
2022/12/12 02:51:01;;;;;;;29.00;23.20;;;0.50;99.90;;;;;;5047468;28;20579;-76
2022/12/12 02:53:27;;;;;;;27.63;22.40;;;0.50;99.90;;;;;;5053362;28;20490;-75
2022/12/12 02:56:28;;;;;;;29.47;23.67;;;0.40;99.90;;;;;;5069909;28;20142;-76
2022/12/12 02:58:54;;;;;;;29.27;22.67;;;0.50;99.90;;;;;;5014829;28;20146;-76
2022/12/12 03:01:44;;;;;;;28.97;23.37;;;0.50;99.90;;;;;;5043941;28;20589;-75
2022/12/12 03:08:08;;;;;;;27.90;23.60;;;0.50;99.90;;;;;;5032810;28;20535;-75
2022/12/12 03:11:01;;;;;;;26.93;22.47;;;0.50;99.90;;;;;;5065273;28;20685;-75
2022/12/12 03:13:44;;;;;;;28.70;23.83;;;0.50;99.90;;;;;;5054327;28;20051;-75
2022/12/12 03:16:17;;;;;;;29.20;23.87;;;0.50;99.90;;;;;;5068810;28;20375;-75
2022/12/12 03:19:17;;;;;;;28.13;22.23;;;0.50;99.90;;;;;;5055794;28;20054;-76
2022/12/12 03:21:52;;;;;;;29.60;24.05;;;0.50;99.90;;;;;;5065364;27;20077;-68
2022/12/12 03:24:23;;;;;;;29.17;23.23;;;0.50;99.90;;;;;;5067841;27;20944;-68
2022/12/12 03:27:08;;;;;;;29.37;23.80;;;0.50;99.90;;;;;;5084723;27;20342;-68
2022/12/12 03:29:41;;;;;;;26.37;22.17;;;0.50;99.90;;;;;;5065450;27;20047;-68
2022/12/12 03:32:14;;;;;;;31.70;25.20;;;0.50;99.90;;;;;;5058816;27;20178;-68
2022/12/12 03:35:05;;;;;;;26.30;22.43;;;0.50;99.90;;;;;;5063862;27;20142;-76
2022/12/12 03:37:36;;;;;;;30.30;23.60;;;0.60;99.90;;;;;;5078279;27;20966;-76
2022/12/12 03:40:07;;;;;;;;;;;0.50;99.90;;;;;;5065591;27;20116;-76
2022/12/12 03:42:44;;;;;;;28.93;23.33;;;0.50;99.90;;;;;;5064676;28;19999;-76
2022/12/12 03:45:26;;;;;;;28.60;22.97;;;0.50;99.90;;;;;;5078561;28;20118;-76
2022/12/12 03:48:20;;;;;;;30.20;24.47;;;0.50;99.90;;;;;;5068981;27;20738;-76
2022/12/12 03:50:54;;;;;;;29.60;23.70;;;0.50;99.90;;;;;;5063352;27;20479;-76
2022/12/12 03:53:47;;;;;;;29.87;23.30;;;0.50;99.90;;;;;;5083325;28;20505;-76
2022/12/12 03:56:50;;;;;;;29.50;24.27;;;0.50;99.90;;;;;;5062475;28;20565;-75
2022/12/12 03:59:21;;;;;;;30.00;24.00;;;0.50;99.90;;;;;;5062317;28;20050;-78
2022/12/12 04:01:59;;;;;;;29.83;24.00;;;0.50;99.90;;;;;;5081396;28;20680;-78
2022/12/12 04:05:00;;;;;;;30.53;24.67;;;0.50;99.90;;;;;;5061813;28;20039;-76
2022/12/12 04:07:38;;;;;;;33.97;25.23;;;0.50;99.90;;;;;;5048672;28;20112;-76
2022/12/12 04:13:09;;;;;;;31.73;24.30;;;0.50;99.90;;;;;;5066603;28;20055;-75
2022/12/12 04:15:47;;;;;;;31.97;24.10;;;0.40;99.90;;;;;;5084830;28;20054;-75
2022/12/12 04:18:45;;;;;;;28.97;23.83;;;0.50;99.90;;;;;;5079688;28;20130;-75
2022/12/12 04:24:21;;;;;;;29.47;24.10;;;0.50;99.90;;;;;;5079976;28;20506;-75
2022/12/12 04:27:05;;;;;;;32.67;25.13;;;0.50;99.90;;;;;;5067268;28;20055;-75
2022/12/12 04:29:34;;;;;;;31.50;25.37;;;0.50;99.90;;;;;;5082367;28;20474;-76
2022/12/12 04:32:17;;;;;;;31.10;24.47;;;0.50;99.90;;;;;;5079519;28;20134;-77
2022/12/12 04:34:43;;;;;;;32.07;23.40;;;0.50;99.90;;;;;;5083556;28;20049;-75
2022/12/12 04:37:14;;;;;;;29.87;23.83;;;0.50;99.90;;;;;;5068712;28;20043;-76
2022/12/12 04:39:42;;;;;;;31.53;24.37;;;0.40;99.90;;;;;;5061532;28;20063;-75
2022/12/12 04:42:13;;;;;;;29.43;23.33;;;0.50;99.90;;;;;;5086104;28;20043;-75
2022/12/12 04:44:41;;;;;;;31.70;24.47;;;0.50;99.90;;;;;;5080265;28;20082;-75
2022/12/12 04:47:08;;;;;;;31.20;24.10;;;0.50;99.90;;;;;;5059724;28;20039;-75
2022/12/12 04:49:36;;;;;;;30.73;24.40;;;0.50;99.90;;;;;;5070276;28;20062;-75
2022/12/12 04:52:06;;;;;;;29.13;23.50;;;0.40;99.90;;;;;;5064576;28;20047;-75
2022/12/12 04:54:40;;;;;;;29.50;23.15;;;0.50;99.90;;;;;;5086753;28;20608;-76
2022/12/12 04:57:10;;;;;;;32.13;24.23;;;0.40;99.90;;;;;;5083005;28;20066;-75
2022/12/12 04:59:37;;;;;;;31.00;24.00;;;0.40;99.90;;;;;;5082227;28;20044;-75
2022/12/12 05:02:48;;;;;;;32.80;24.67;;;0.40;99.90;;;;;;5067409;28;20897;-76
2022/12/12 05:05:21;;;;;;;31.40;24.67;;;0.40;99.90;;;;;;5083663;28;20041;-75
2022/12/12 05:08:01;;;;;;;29.83;24.13;;;0.40;99.90;;;;;;5084061;27;20666;-75
2022/12/12 05:10:27;;;;;;;35.47;25.33;;;0.40;99.90;;;;;;5069750;27;20114;-75
2022/12/12 05:12:58;;;;;;;32.77;25.27;;;0.40;99.90;;;;;;5065888;27;20045;-75
2022/12/12 05:15:26;;;;;;;30.77;24.50;;;0.30;99.90;;;;;;5083875;27;20040;-75
2022/12/12 05:18:02;;;;;;;33.37;25.67;;;0.40;99.90;;;;;;5067283;27;20050;-75
2022/12/12 05:20:28;;;;;;;30.50;24.67;;;0.40;99.90;;;;;;5085914;28;20153;-75
2022/12/12 05:22:54;;;;;;;33.60;25.17;;;0.40;99.90;;;;;;5058701;28;20067;-75
2022/12/12 05:25:20;;;;;;;33.47;25.50;;;0.40;99.90;;;;;;5060100;28;20054;-75
2022/12/12 05:27:45;;;;;;;39.83;27.07;;;0.30;99.90;;;;;;5057388;28;20054;-75
2022/12/12 05:30:12;;;;;;;31.30;24.50;;;0.30;99.90;;;;;;5058733;28;20050;-75
2022/12/12 05:32:37;;;;;;;32.93;25.07;;;0.40;99.90;;;;;;5074858;28;20043;-75
2022/12/12 05:35:04;;;;;;;32.70;25.37;;;0.30;99.90;;;;;;5075428;28;20110;-75
2022/12/12 05:37:30;;;;;;;33.77;26.03;;;0.40;99.90;;;;;;5058369;28;20051;-75
2022/12/12 05:39:56;;;;;;;33.57;25.90;;;0.40;99.90;;;;;;5074052;28;20043;-77
2022/12/12 05:42:21;;;;;;;34.37;26.63;;;0.40;99.90;;;;;;5040243;28;20652;-77
2022/12/12 05:44:47;;;;;;;34.70;25.47;;;0.40;99.90;;;;;;5072997;28;20595;-77
2022/12/12 05:47:13;;;;;;;32.77;25.10;;;0.40;99.90;;;;;;5057578;28;20043;-77
2022/12/12 05:49:39;;;;;;;32.10;25.17;;;0.40;99.90;;;;;;5055409;28;20038;-76
2022/12/12 05:52:04;;;;;;;31.73;24.87;;;0.40;99.90;;;;;;5041693;28;20535;-75
2022/12/12 05:54:30;;;;;;;32.63;24.60;;;0.40;99.90;;;;;;5041197;28;20506;-75
2022/12/12 05:56:56;;;;;;;31.67;25.60;;;0.40;99.90;;;;;;5056538;27;21441;-75
2022/12/12 05:59:22;;;;;;;33.17;25.03;;;0.40;99.90;;;;;;5073279;28;20039;-75
2022/12/12 06:01:48;;;;;;;30.83;23.93;;;0.40;99.90;;;;;;5050981;28;20047;-75
2022/12/12 06:04:13;;;;;;;34.40;26.20;;;0.40;99.90;;;;;;5060276;28;20233;-74
2022/12/12 06:06:39;;;;;;;32.83;25.70;;;0.40;99.90;;;;;;5069110;28;20058;-75
2022/12/12 06:09:05;;;;;;;32.30;25.87;;;0.40;99.90;;;;;;5052699;28;20044;-75
2022/12/12 06:11:31;;;;;;;33.40;26.07;;;0.40;99.90;;;;;;5067854;28;20044;-75
2022/12/12 06:13:56;;;;;;;35.47;25.50;;;0.40;99.90;;;;;;5066163;28;20055;-75
2022/12/12 06:16:22;;;;;;;32.30;25.90;;;0.40;99.90;;;;;;5067793;28;20562;-75
2022/12/12 06:18:52;;;;;;;34.17;26.53;;;0.40;99.90;;;;;;5050502;28;20059;-75
2022/12/12 06:21:20;;;;;;;35.03;26.00;;;0.40;99.90;;;;;;5060479;27;20055;-75
2022/12/12 06:23:46;;;;;;;29.17;24.47;;;0.40;99.90;;;;;;5070899;27;20051;-75
2022/12/12 06:26:13;;;;;;;33.67;26.43;;;0.40;99.90;;;;;;5087088;27;20486;-75
2022/12/12 06:28:40;;;;;;;31.53;25.23;;;0.40;99.90;;;;;;5067862;27;20242;-75
2022/12/12 06:31:07;;;;;;;30.73;25.43;;;0.40;99.90;;;;;;5109661;27;20038;-74
2022/12/12 06:33:34;;;;;;;30.73;24.53;;;0.40;99.90;;;;;;5071794;27;20071;-75
2022/12/12 06:36:12;;;;;;;31.77;24.20;;;0.40;99.90;;;;;;5087950;27;20224;-75
2022/12/12 06:38:39;;;;;;;30.93;25.13;;;0.40;99.90;;;;;;5070726;27;21092;-75
2022/12/12 06:41:07;;;;;;;32.77;24.87;;;0.40;99.90;;;;;;5088333;27;20104;-77
2022/12/12 06:43:33;;;;;;;31.67;25.10;;;0.40;99.90;;;;;;5071512;27;20424;-74
2022/12/12 06:46:03;;;;;;;32.07;25.23;;;0.50;99.90;;;;;;5070262;27;20051;-75
2022/12/12 06:48:33;;;;;;;32.47;26.08;;;0.40;99.90;;;;;;5049270;27;20046;-68
2022/12/12 06:51:11;;;;;;;30.25;23.70;;;0.40;99.90;;;;;;5088518;27;20073;-68
2022/12/12 06:53:37;;;;;;;30.37;24.67;;;0.50;99.90;;;;;;5070187;27;20043;-75
2022/12/12 06:56:13;;;;;;;29.80;24.47;;;0.40;99.90;;;;;;5070363;27;20413;-75
2022/12/12 06:58:39;;;;;;;31.47;25.17;;;0.40;99.90;;;;;;5070009;27;20048;-76
2022/12/12 07:01:06;;;;;;;31.57;24.17;;;0.40;99.90;;;;;;5076476;27;20175;-75
2022/12/12 07:03:36;;;;;;;29.40;24.20;;;0.40;99.90;;;;;;5087825;27;20039;-74
2022/12/12 07:06:02;;;;;;;33.60;25.75;;;0.40;99.90;;;;;;5086205;27;20074;-75
2022/12/12 07:08:32;;;;;;;31.30;25.20;;;0.40;99.90;;;;;;5101854;27;20042;-75
2022/12/12 07:11:04;;;;;;;29.37;23.77;;;0.40;99.90;;;;;;5090840;27;20041;-74
2022/12/12 07:13:30;;;;;;;28.90;24.63;;;0.30;99.90;;;;;;5090980;27;20656;-74
2022/12/12 07:15:56;;;;;;;32.27;25.37;;;0.30;99.90;;;;;;5092478;27;20771;-74
2022/12/12 07:18:22;;;;;;;31.57;24.40;;;0.30;99.90;;;;;;5072739;27;21688;-74
2022/12/12 07:20:48;;;;;;;32.00;25.77;;;0.30;99.90;;;;;;5108778;27;20119;-74
2022/12/12 07:23:14;;;;;;;30.10;25.07;;;0.30;99.90;;;;;;5108243;27;20039;-75
2022/12/12 07:25:42;;;;;;;31.87;25.80;;;0.30;99.90;;;;;;5092059;27;20053;-74
2022/12/12 07:28:09;;;;;;;34.13;26.30;;;0.30;99.90;;;;;;5124963;27;20069;-74
2022/12/12 07:30:40;;;;;;;32.33;24.73;;;0.30;99.90;;;;;;5106404;27;20043;-75
2022/12/12 07:33:06;;;;;;;32.77;25.30;;;0.30;99.90;;;;;;5105396;27;20050;-74
2022/12/12 07:35:34;;;;;;;32.67;25.87;;;0.30;99.90;;;;;;5106979;27;20126;-74
2022/12/12 07:38:00;;;;;;;35.90;26.40;;;0.30;99.90;;;;;;5091324;27;20057;-74
2022/12/12 07:40:25;;;;;;;33.67;26.23;;;0.40;99.90;;;;;;5090826;27;20043;-74
2022/12/12 07:42:51;;;;;;;32.77;26.47;;;0.30;99.90;;;;;;5092639;27;20151;-74
2022/12/12 07:45:17;;;;;;;32.67;25.50;;;0.40;99.90;;;;;;5090092;27;20430;-75
2022/12/12 07:47:43;;;;;;;32.37;25.50;;;0.30;99.90;;;;;;5125562;27;20447;-74
2022/12/12 07:50:09;;;;;;;31.43;25.50;;;0.40;99.90;;;;;;5106661;27;20051;-75
2022/12/12 07:52:35;;;;;;;31.60;24.83;;;0.30;99.90;;;;;;5077554;27;20054;-74
2022/12/12 07:55:01;;;;;;;32.83;25.87;;;0.30;99.90;;;;;;5092683;27;20057;-75
2022/12/12 07:57:31;;;;;;;28.27;24.33;;;0.30;99.90;;;;;;5060413;27;20065;-74
2022/12/12 07:59:57;;;;;;;30.17;24.70;;;0.30;99.90;;;;;;5074458;27;20057;-74
2022/12/12 08:02:23;;;;;;;31.77;25.50;;;0.30;99.90;;;;;;5073427;27;20055;-76
2022/12/12 08:04:49;;;;;;;30.07;24.80;;;0.30;99.90;;;;;;5091408;27;20039;-74
2022/12/12 08:07:14;;;;;;;30.93;25.00;;;0.30;99.90;;;;;;5059427;27;20061;-75
2022/12/12 08:09:40;;;;;;;31.47;25.40;;;0.30;99.90;;;;;;5103340;27;20046;-75
2022/12/12 08:12:06;;;;;;;32.40;25.80;;;0.30;99.90;;;;;;5093075;27;20133;-75
2022/12/12 08:14:33;;;;;;;31.00;25.30;;;0.30;99.90;;;;;;5092772;27;20039;-75
2022/12/12 08:17:02;;;;;;;30.27;24.90;;;0.30;99.90;;;;;;5120114;27;20130;-75
2022/12/12 08:19:28;;;;;;;31.60;24.57;;;0.30;99.90;;;;;;5102469;27;20039;-74
2022/12/12 08:21:54;;;;;;;31.87;26.00;;;0.30;99.90;;;;;;5085788;27;20158;-74
2022/12/12 08:24:20;;;;;;;30.37;23.90;;;0.40;99.90;;;;;;5121013;27;20126;-75
2022/12/12 08:26:50;;;;;;;33.47;26.73;;;0.30;99.90;;;;;;5079653;27;20085;-75
2022/12/12 08:29:15;;;;;;;31.10;25.07;;;0.30;99.90;;;;;;5110350;27;20039;-74
2022/12/12 08:31:41;;;;;;;31.57;25.90;;;0.30;99.90;;;;;;5113987;27;20046;-75
2022/12/12 08:34:08;;;;;;;31.00;25.97;;;0.40;99.90;;;;;;5088476;27;20085;-69
2022/12/12 08:36:34;;;;;;;28.83;24.80;;;0.40;99.90;;;;;;5120366;27;20180;-69
2022/12/12 08:39:05;;;;;;;29.03;24.93;;;0.40;99.90;;;;;;5134399;27;20039;-69
2022/12/12 08:41:33;;;;;;;30.43;24.53;;;0.30;99.90;;;;;;5138057;27;20092;-74
2022/12/12 08:43:59;;;;;;;30.73;24.47;;;0.40;99.90;;;;;;5119039;27;20482;-75
2022/12/12 08:46:25;;;;;;;30.63;25.03;;;0.40;99.90;;;;;;5074868;27;20030;-74
2022/12/12 08:48:51;;;;;;;29.93;24.57;;;0.40;99.90;;;;;;5103707;27;20039;-75
2022/12/12 08:51:17;;;;;;;31.47;25.43;;;0.40;99.90;;;;;;5123922;27;20355;-75
2022/12/12 08:53:44;;;;;;;30.27;25.33;;;0.50;99.90;;;;;;5103919;27;20072;-76
2022/12/12 08:56:10;;;;;;;30.00;24.10;;;0.50;99.90;;;;;;5124819;27;20049;-75
2022/12/12 08:58:36;;;;;;;27.97;23.50;;;0.50;99.90;;;;;;5126008;27;20047;-75
2022/12/12 09:01:02;;;;;;;29.27;24.53;;;0.50;99.90;;;;;;5087152;27;20070;-74
2022/12/12 09:03:28;;;;;;;29.70;25.10;;;0.50;99.90;;;;;;5105550;27;20042;-75
2022/12/12 09:05:54;;;;;;;29.60;24.93;;;0.60;99.90;;;;;;5124686;27;20042;-75
2022/12/12 09:08:20;;;;;;;30.30;25.27;;;0.60;99.90;;;;;;5104924;27;21155;-75
2022/12/12 09:10:48;;;;;;;28.23;24.77;;;0.60;99.90;;;;;;5103524;27;20437;-75
2022/12/12 09:13:14;;;;;;;28.43;24.40;;;0.60;99.90;;;;;;5138495;27;20528;-75
2022/12/12 09:15:40;;;;;;;30.43;24.87;;;0.60;99.90;;;;;;5107919;27;20565;-75
2022/12/12 09:18:06;;;;;;;29.73;24.57;;;0.60;99.90;;;;;;5120491;27;20078;-76
2022/12/12 09:20:35;;;;;;;28.27;25.17;;;0.70;99.90;;;;;;5087439;27;20131;-75
2022/12/12 09:23:00;;;;;;;29.67;24.87;;;0.70;99.90;;;;;;5078560;27;20134;-76
2022/12/12 09:25:26;;;;;;;27.87;24.17;;;0.70;99.90;;;;;;5082377;28;20173;-75
2022/12/12 09:27:52;;;;;;;29.93;24.37;;;0.70;99.90;;;;;;5058090;27;20460;-75
2022/12/12 09:30:18;;;;;;;28.80;24.67;;;0.70;99.90;;;;;;5071700;27;20027;-75
2022/12/12 09:32:44;;;;;;;27.70;23.33;;;0.70;99.90;;;;;;5088864;27;20055;-75
2022/12/12 09:35:10;;;;;;;28.73;24.67;;;0.70;99.90;;;;;;5102067;27;20043;-75
2022/12/12 09:37:36;;;;;;;29.33;25.30;;;0.70;99.90;;;;;;5085080;27;20476;-69
2022/12/12 09:40:03;;;;;;;29.03;24.10;;;0.80;99.90;;;;;;5110338;27;20074;-69
2022/12/12 09:42:31;;;;;;;26.83;23.37;;;0.80;99.90;;;;;;5086013;27;20068;-75
2022/12/12 09:45:07;;;;;;;28.27;23.87;;;0.80;99.90;;;;;;5118094;27;20047;-76
2022/12/12 09:47:44;;;;;;;27.20;24.23;;;0.80;99.90;;;;;;5101474;27;20042;-76
2022/12/12 09:50:21;;;;;;;27.27;24.00;;;0.80;99.90;;;;;;5104250;27;20058;-75
2022/12/12 09:52:48;;;;;;;29.13;23.97;;;0.80;99.90;;;;;;5086940;27;20440;-76
2022/12/12 09:55:22;;;;;;;26.90;23.63;;;0.80;99.90;;;;;;5062918;27;20096;-76
2022/12/12 09:58:01;;;;;;;28.30;24.53;;;0.90;99.90;;;;;;5100574;27;20545;-75
2022/12/12 10:00:32;;;;;;;29.47;25.30;;;0.90;99.90;;;;;;5099523;27;20051;-75
2022/12/12 10:03:07;;;;;;;31.10;24.73;;;0.90;99.90;;;;;;5094300;27;20493;-76
2022/12/12 10:05:34;;;;;;;27.70;23.60;;;0.90;99.90;;;;;;5082111;27;20143;-76
2022/12/12 10:08:20;;;;;;;27.33;23.80;;;1.00;99.90;;;;;;5077017;27;20051;-76
2022/12/12 10:11:02;;;;;;;28.33;24.33;;;1.00;99.90;;;;;;5102088;27;20132;-76
2022/12/12 10:13:33;;;;;;;26.27;22.93;;;1.00;99.90;;;;;;5075999;27;20464;-76
2022/12/12 10:16:12;;;;;;;25.92;23.13;;;1.00;99.90;;;;;;5099075;27;20046;-77
2022/12/12 10:18:44;;;;;;;28.33;24.03;;;1.00;99.90;;;;;;5075882;27;20043;-76
2022/12/12 10:21:31;;;;;;;27.10;23.63;;;1.00;99.90;;;;;;5117623;27;20043;-76
2022/12/12 10:24:41;;;;;;;27.37;23.73;;;1.10;99.90;;;;;;5069957;27;20047;-76
2022/12/12 10:27:12;;;;;;;26.55;23.50;;;1.10;99.90;;;;;;5094664;27;20130;-76
2022/12/12 10:29:45;;;;;;;25.50;21.67;;;1.20;99.90;;;;;;5069891;28;20088;-77
2022/12/12 10:32:33;;;;;;;26.07;22.37;;;1.20;99.90;;;;;;5094283;27;20046;-76
2022/12/12 10:35:33;;;;;;;26.50;23.47;;;1.20;99.90;;;;;;5101131;27;20054;-76
2022/12/12 10:38:26;;;;;;;26.80;22.85;;;1.20;99.90;;;;;;5087019;27;20740;-77
2022/12/12 10:40:57;;;;;;;26.80;23.87;;;1.20;99.90;;;;;;5090049;27;20047;-77
2022/12/12 10:43:28;;;;;;;;;;;1.20;99.90;;;;;;5094994;27;20061;-78
2022/12/12 10:45:54;;;;;;;28.57;24.43;;;1.20;99.90;;;;;;5082711;27;19920;-77
2022/12/12 10:48:20;;;;;;;27.13;23.77;;;1.20;99.90;;;;;;5082902;28;20031;-77
2022/12/12 10:50:57;;;;;;;28.77;24.00;;;1.30;99.90;;;;;;5075998;27;20129;-78
2022/12/12 10:53:23;;;;;;;29.70;25.40;;;1.30;99.90;;;;;;5074350;27;20054;-78
2022/12/12 10:55:57;;;;;;;32.20;25.53;;;1.30;99.90;;;;;;5099853;27;20374;-77
2022/12/12 10:58:36;;;;;;;30.87;26.00;;;1.40;99.90;;;;;;5075777;27;20055;-78
2022/12/12 11:01:18;;;;;;;33.57;27.83;;;1.40;99.90;;;;;;5092048;27;20046;-78
2022/12/12 11:03:49;;;;;;;31.70;26.97;;;1.40;99.90;;;;;;5078538;27;20074;-78
2022/12/12 11:06:39;;;;;;;31.67;25.83;;;1.40;99.90;;;;;;5088676;28;20044;-76
2022/12/12 11:09:17;;;;;;;33.07;27.23;;;1.40;99.90;;;;;;5079496;27;20035;-76
2022/12/12 11:12:10;;;;;;;32.27;26.60;;;1.50;99.90;;;;;;5075404;27;20043;-76
2022/12/12 11:14:39;;;;;;;31.03;26.17;;;1.50;99.90;;;;;;5116997;27;20049;-77
2022/12/12 11:17:34;;;;;;;31.97;26.47;;;1.50;99.90;;;;;;5076921;28;20047;-77
2022/12/12 11:20:04;;;;;;;34.67;28.17;;;1.50;99.90;;;;;;5067227;27;20143;-77
2022/12/12 11:22:32;;;;;;;31.48;27.35;;;1.50;99.90;;;;;;5084773;28;20051;-77
2022/12/12 11:25:01;;;;;;;32.53;27.30;;;1.50;99.90;;;;;;5076703;27;20312;-77
2022/12/12 11:27:30;;;;;;;32.87;28.20;;;1.50;99.90;;;;;;5082662;27;20073;-77
2022/12/12 11:30:21;;;;;;;33.33;28.07;;;1.60;99.90;;;;;;5094908;27;20069;-78
2022/12/12 11:32:51;;;;;;;35.57;27.23;;;1.60;99.90;;;;;;5077364;27;20096;-78
2022/12/12 11:35:38;;;;;;;31.70;27.13;;;1.50;99.90;;;;;;5069010;28;20043;-77
2022/12/12 11:38:17;;;;;;;32.50;27.93;;;1.60;99.90;;;;;;5078176;28;20130;-77
2022/12/12 11:40:44;;;;;;;34.47;28.20;;;1.60;99.90;;;;;;5089596;27;20071;-76
2022/12/12 11:43:31;;;;;;;32.27;26.43;;;1.60;99.90;;;;;;5090249;27;20445;-76
2022/12/12 11:46:02;;;;;;;35.10;28.10;;;1.70;99.90;;;;;;5089768;28;20420;-76
2022/12/12 11:49:04;;;;;;;33.37;28.00;;;1.70;99.90;;;;;;5117048;27;20106;-77
2022/12/12 11:51:42;;;;;;;32.97;27.43;;;1.70;99.90;;;;;;4998618;27;20464;-76
2022/12/12 11:54:18;;;;;;;34.83;27.97;;;1.70;99.90;;;;;;5089755;27;20426;-77
2022/12/12 11:57:10;;;;;;;32.90;27.70;;;1.70;99.90;;;;;;5090990;28;20560;-77
2022/12/12 11:59:47;;;;;;;35.17;28.60;;;1.70;99.90;;;;;;5075950;28;20410;-77
2022/12/12 12:02:47;;;;;;;32.63;26.80;;;1.70;99.90;;;;;;5085229;28;20039;-76
2022/12/12 12:05:41;;;;;;;32.70;28.10;;;1.70;99.90;;;;;;5077231;28;20040;-77
2022/12/12 12:08:38;;;;;;;32.47;27.40;;;1.70;99.90;;;;;;5080602;28;20305;-78
2022/12/12 12:11:32;;;;;;;32.53;28.03;;;1.70;99.90;;;;;;5086307;28;20059;-79
2022/12/12 12:14:35;;;;;;;36.03;29.40;;;1.70;99.90;;;;;;5088752;28;20207;-78
2022/12/12 12:17:22;;;;;;;37.27;30.23;;;1.70;99.90;;;;;;5098103;27;20047;-78
2022/12/12 12:20:11;;;;;;;36.23;30.03;;;1.70;99.90;;;;;;5091489;27;20046;-78
2022/12/12 12:22:57;;;;;;;37.80;30.33;;;1.70;99.90;;;;;;5098259;27;20047;-79
2022/12/12 12:25:29;;;;;;;34.20;28.43;;;1.80;99.90;;;;;;5114294;27;20603;-78
2022/12/12 12:28:26;;;;;;;34.43;28.70;;;1.80;99.90;;;;;;5080432;27;20047;-78
2022/12/12 12:31:14;;;;;;;35.40;28.13;;;1.80;99.90;;;;;;5097366;27;20043;-78
2022/12/12 12:33:46;;;;;;;35.23;29.03;;;1.80;99.90;;;;;;5119305;27;20047;-78
2022/12/12 12:36:21;;;;;;;35.67;29.37;;;1.70;99.90;;;;;;5083824;27;20078;-78
2022/12/12 12:39:12;;;;;;;33.63;29.70;;;1.80;99.90;;;;;;5117839;27;20267;-78
2022/12/12 12:42:03;;;;;;;33.37;28.57;;;1.80;99.90;;;;;;5075103;28;20440;-77
2022/12/12 12:45:11;;;;;;;35.13;30.08;;;1.80;99.90;;;;;;5094022;28;20442;-77
2022/12/12 12:48:00;;;;;;;38.17;30.00;;;1.80;99.90;;;;;;5064173;28;20043;-76
2022/12/12 12:50:44;;;;;;;36.13;30.37;;;1.80;99.90;;;;;;5096051;28;20047;-78
2022/12/12 12:53:39;;;;;;;35.80;29.90;;;1.80;99.90;;;;;;5088242;27;20116;-78
2022/12/12 12:56:21;;;;;;;39.23;31.73;;;1.80;99.90;;;;;;5082007;27;20313;-78
2022/12/12 12:58:49;;;;;;;36.70;29.37;;;1.80;99.90;;;;;;5084086;27;20039;-77
2022/12/12 13:01:22;;;;;;;38.03;32.03;;;1.80;99.90;;;;;;5056549;28;20032;-78
2022/12/12 13:03:59;;;;;;;37.20;30.43;;;1.80;99.90;;;;;;5083333;27;20062;-78
2022/12/12 13:06:41;;;;;;;36.43;29.77;;;1.80;99.90;;;;;;5092919;27;20071;-78
2022/12/12 13:09:45;;;;;;;36.77;30.57;;;1.80;99.90;;;;;;5101073;27;20121;-78
2022/12/12 13:12:36;;;;;;;36.67;30.03;;;1.80;99.90;;;;;;5082997;27;20748;-78
2022/12/12 13:15:18;;;;;;;36.10;28.83;;;1.80;99.90;;;;;;5090547;27;20047;-78
2022/12/12 13:18:01;;;;;;;34.10;28.73;;;1.80;99.90;;;;;;5101494;27;20112;-78
2022/12/12 13:20:29;;;;;;;34.77;29.40;;;1.80;99.90;;;;;;5093919;27;20058;-78